Time;durP1;ratioP1;P1;durP2;ratioP2;P2;SDS_P1;SDS_P2;PMS_P1;PMS_P2;Temp;Humidity;BMP_temperature;BMP_pressure;BME280_temperature;BME280_humidity;BME280_pressure;Samples;Min_cycle;Max_cycle;Signal;HPM_P1;HPM_P2
2024/01/20 00:00:35;;;;;;;2.43;1.83;;;;;;;21.43;33.46;94788.91;6136408;28;109124;-54
2024/01/20 00:03:38;;;;;;;3.00;1.80;;;;;;;21.43;33.17;94791.59;6160992;28;110178;-54
2024/01/20 00:06:42;;;;;;;3.33;2.00;;;;;;;21.40;33.55;94792.19;6155327;28;110262;-55
2024/01/20 00:09:49;;;;;;;2.20;1.83;;;;;;;21.41;33.27;94800.97;6153042;28;109083;-54
2024/01/20 00:12:54;;;;;;;1.83;1.47;;;;;;;21.51;33.10;94801.50;6147947;28;111101;-51
2024/01/20 00:15:58;;;;;;;2.30;1.70;;;;;;;21.73;32.31;94808.59;6159891;28;109058;-52
2024/01/20 00:19:01;;;;;;;1.90;1.47;;;;;;;21.88;32.07;94814.63;6134183;28;109135;-52
2024/01/20 00:22:05;;;;;;;2.20;1.80;;;;;;;21.94;31.92;94832.03;6141690;28;109049;-52
2024/01/20 00:25:10;;;;;;;1.77;1.47;;;;;;;21.98;31.96;94835.66;6156810;28;110007;-51
2024/01/20 00:28:14;;;;;;;2.13;1.30;;;;;;;21.88;32.16;94825.28;6157105;28;109297;-51
2024/01/20 00:31:17;;;;;;;2.27;1.30;;;;;;;21.99;31.87;94851.31;6147630;28;111463;-52
2024/01/20 00:34:20;;;;;;;4.07;1.53;;;;;;;22.00;32.15;94842.22;6159009;28;108787;-52
2024/01/20 00:37:24;;;;;;;2.23;1.57;;;;;;;21.99;32.39;94851.31;6158640;28;109112;-53
2024/01/20 00:40:28;;;;;;;2.00;1.30;;;;;;;22.01;32.15;94843.03;6158665;28;110653;-53
2024/01/20 00:43:31;;;;;;;1.77;1.37;;;;;;;22.02;31.72;94858.72;6148976;28;109458;-53
2024/01/20 00:46:34;;;;;;;2.13;1.47;;;;;;;22.02;31.65;94848.06;6159013;28;111109;-53
2024/01/20 00:49:38;;;;;;;2.13;1.30;;;;;;;22.04;31.81;94864.53;6177375;28;109377;-53
2024/01/20 00:52:41;;;;;;;3.53;1.63;;;;;;;22.05;31.75;94860.75;6151955;28;110430;-52
2024/01/20 00:55:45;;;;;;;1.77;1.20;;;;;;;22.05;31.67;94849.31;6156726;28;110151;-53
2024/01/20 00:58:48;;;;;;;1.77;1.17;;;;;;;22.04;31.62;94861.06;6177107;28;109290;-53
2024/01/20 01:01:51;;;;;;;2.33;1.37;;;;;;;22.04;31.94;94859.19;6159664;28;109135;-52
2024/01/20 01:04:55;;;;;;;2.07;1.47;;;;;;;22.05;31.76;94886.63;6146918;28;109653;-51
2024/01/20 01:07:58;;;;;;;2.10;1.40;;;;;;;21.91;31.55;94878.75;6159909;28;109479;-52
2024/01/20 01:11:03;;;;;;;2.70;1.73;;;;;;;22.04;31.86;94901.03;6157360;28;109516;-53
2024/01/20 01:14:06;;;;;;;1.63;1.20;;;;;;;22.06;31.49;94890.84;6159073;28;109909;-53
2024/01/20 01:17:09;;;;;;;1.97;1.50;;;;;;;22.05;31.62;94897.28;6147011;28;109298;-52
2024/01/20 01:20:13;;;;;;;1.63;1.13;;;;;;;22.05;31.81;94911.38;6158225;28;110273;-53
2024/01/20 01:23:16;;;;;;;2.17;1.50;;;;;;;22.05;31.76;94898.06;6170450;28;109328;-51
2024/01/20 01:26:21;;;;;;;1.50;1.10;;;;;;;22.04;31.86;94907.16;6164270;28;109124;-51
2024/01/20 01:29:24;;;;;;;1.60;1.10;;;;;;;22.04;31.71;94920.47;6152036;28;109317;-52
2024/01/20 01:32:27;;;;;;;1.50;1.03;;;;;;;22.05;31.51;94916.72;6158396;28;110195;-54
2024/01/20 01:35:30;;;;;;;1.60;1.20;;;;;;;22.07;31.94;94919.84;6155947;28;109150;-52
2024/01/20 01:38:33;;;;;;;2.07;1.23;;;;;;;22.08;31.73;94934.75;6147192;28;109130;-53
2024/01/20 01:41:38;;;;;;;2.80;1.40;;;;;;;22.06;31.51;94922.84;6158522;28;109136;-52
2024/01/20 01:44:41;;;;;;;1.67;1.17;;;;;;;22.08;31.97;94928.63;6158110;28;109670;-52
2024/01/20 01:47:44;;;;;;;2.00;1.47;;;;;;;22.07;31.60;94919.84;6156251;28;110156;-53
2024/01/20 01:50:49;;;;;;;1.90;1.27;;;;;;;22.00;31.53;94911.50;6146333;28;109467;-53
2024/01/20 01:53:52;;;;;;;1.83;1.30;;;;;;;22.07;31.74;94911.88;6157507;28;109144;-52
2024/01/20 01:56:59;;;;;;;1.63;1.00;;;;;;;22.10;31.44;94911.25;6157284;28;109160;-52
2024/01/20 02:00:04;;;;;;;1.50;1.00;;;;;;;22.10;31.76;94915.78;6146444;28;110158;-51
2024/01/20 02:03:08;;;;;;;1.80;1.23;;;;;;;22.10;31.43;94926.44;6145331;28;109036;-52
2024/01/20 02:06:11;;;;;;;2.13;1.30;;;;;;;22.11;31.90;94926.13;6156885;28;109110;-52
2024/01/20 02:09:14;;;;;;;2.03;1.37;;;;;;;22.12;31.52;94932.25;6156433;28;109219;-52
2024/01/20 02:12:19;;;;;;;1.70;1.20;;;;;;;22.09;31.33;94915.00;6148309;28;110144;-51
2024/01/20 02:15:23;;;;;;;1.40;1.10;;;;;;;22.09;31.31;94916.88;6162980;28;111487;-52
2024/01/20 02:18:26;;;;;;;2.00;1.00;;;;;;;22.09;31.84;94909.69;6168572;28;110280;-52
2024/01/20 02:21:30;;;;;;;1.53;1.10;;;;;;;22.09;31.74;94914.22;6157983;28;110143;-53
2024/01/20 02:24:34;;;;;;;1.30;0.77;;;;;;;22.10;31.65;94924.56;6147164;28;111424;-53
2024/01/20 02:27:38;;;;;;;2.20;1.20;;;;;;;22.08;31.23;94910.78;6157728;28;109065;-53
2024/01/20 02:30:42;;;;;;;1.87;1.00;;;;;;;22.09;31.64;94923.00;6155618;28;110588;-52
2024/01/20 02:33:45;;;;;;;1.60;1.10;;;;;;;22.10;31.52;94921.91;6144844;28;109462;-53
2024/01/20 02:36:48;;;;;;;1.70;0.97;;;;;;;22.12;31.35;94918.94;6147148;28;108992;-51
2024/01/20 02:39:53;;;;;;;1.40;1.00;;;;;;;22.09;31.34;94933.66;6157296;28;109136;-52
2024/01/20 02:42:56;;;;;;;1.70;1.20;;;;;;;22.10;31.67;94927.22;6156785;28;110103;-51
2024/01/20 02:45:59;;;;;;;1.23;0.90;;;;;;;22.11;31.56;94928.81;6152720;28;109151;-52
2024/01/20 02:49:02;;;;;;;1.47;1.10;;;;;;;22.10;31.07;94956.53;6156095;28;109287;-52
2024/01/20 02:52:06;;;;;;;1.43;1.13;;;;;;;22.10;31.51;94953.88;6160628;28;110062;-51
2024/01/20 02:55:11;;;;;;;1.50;1.10;;;;;;;22.13;31.39;94986.34;6161183;28;110473;-51
2024/01/20 02:58:14;;;;;;;1.17;0.70;;;;;;;22.11;31.16;94971.44;6150583;28;109289;-51
2024/01/20 03:01:17;;;;;;;1.60;1.00;;;;;;;22.11;31.15;94970.66;6160530;28;110173;-51
2024/01/20 03:04:20;;;;;;;1.40;1.00;;;;;;;22.09;31.39;94968.31;6160819;28;110229;-52
2024/01/20 03:07:23;;;;;;;1.30;0.80;;;;;;;22.09;31.00;94986.97;6161435;28;110248;-52
2024/01/20 03:10:28;;;;;;;1.80;1.27;;;;;;;22.12;31.11;94985.56;6149339;28;109290;-52
2024/01/20 03:13:31;;;;;;;1.20;0.80;;;;;;;22.08;31.59;94988.06;6167530;28;110197;-52
2024/01/20 03:16:34;;;;;;;1.33;0.90;;;;;;;22.08;31.06;94988.06;6185353;28;109149;-52
2024/01/20 03:19:37;;;;;;;1.10;0.80;;;;;;;22.10;30.97;94993.84;6177323;28;109145;-52
2024/01/20 03:22:40;;;;;;;1.33;0.90;;;;;;;22.08;31.06;95008.59;6152116;28;110203;-52
2024/01/20 03:25:44;;;;;;;1.30;0.77;;;;;;;22.08;31.40;95014.69;6160886;28;109125;-51
2024/01/20 03:28:47;;;;;;;1.50;1.00;;;;;;;22.09;31.43;95018.16;6160983;28;110309;-52
2024/01/20 03:31:51;;;;;;;1.20;0.80;;;;;;;22.08;31.15;95027.25;6149112;28;109190;-52
2024/01/20 03:34:54;;;;;;;1.33;0.80;;;;;;;22.09;31.29;95036.81;6160036;28;110066;-51
2024/01/20 03:37:57;;;;;;;1.60;1.00;;;;;;;22.10;31.21;95046.38;6160745;28;109964;-51
2024/01/20 03:41:02;;;;;;;1.60;1.10;;;;;;;22.08;31.29;95049.34;6158531;28;109127;-52
2024/01/20 03:44:05;;;;;;;1.83;0.87;;;;;;;22.09;31.05;95056.25;6148901;28;111002;-52
2024/01/20 03:47:08;;;;;;;1.20;0.80;;;;;;;22.09;30.87;95060.78;6160700;28;109140;-53
2024/01/20 03:50:11;;;;;;;1.10;0.90;;;;;;;22.08;30.91;95054.69;6159040;28;109128;-52
2024/01/20 03:53:15;;;;;;;1.47;1.00;;;;;;;22.08;31.29;95068.00;6159341;28;109258;-52
2024/01/20 03:56:19;;;;;;;1.30;0.87;;;;;;;22.09;30.81;95060.78;6149613;28;109162;-52
2024/01/20 03:59:22;;;;;;;1.47;1.00;;;;;;;22.09;30.72;95074.91;6157632;28;109454;-53
2024/01/20 04:02:25;;;;;;;1.43;0.87;;;;;;;22.08;30.73;95075.22;6158375;28;109145;-53
2024/01/20 04:05:28;;;;;;;1.20;0.70;;;;;;;22.05;31.06;95081.94;6155273;28;110277;-52
2024/01/20 04:08:31;;;;;;;1.40;0.90;;;;;;;22.04;30.84;95080.38;6154030;28;110390;-53
2024/01/20 04:11:36;;;;;;;1.40;0.83;;;;;;;22.09;30.97;95079.44;6145376;28;109618;-53
2024/01/20 04:14:39;;;;;;;1.37;0.80;;;;;;;22.09;31.02;95092.78;6169813;28;109185;-53
2024/01/20 04:17:41;;;;;;;1.50;0.93;;;;;;;22.10;30.74;95084.47;6150683;28;109153;-52
2024/01/20 04:20:45;;;;;;;1.30;0.80;;;;;;;22.07;31.30;95090.41;6167109;28;110627;-53
2024/01/20 04:23:48;;;;;;;1.20;0.80;;;;;;;22.05;31.19;95095.25;6157926;28;110293;-52
2024/01/20 04:26:53;;;;;;;1.27;0.83;;;;;;;22.05;30.88;95111.25;6135493;28;110222;-52
2024/01/20 04:29:56;;;;;;;1.30;0.80;;;;;;;22.08;30.84;95107.19;6140774;28;109809;-53
2024/01/20 04:32:59;;;;;;;1.10;0.67;;;;;;;22.08;31.00;95125.84;6159534;28;109093;-53
2024/01/20 04:36:02;;;;;;;1.60;0.80;;;;;;;22.07;30.48;95122.38;6158836;28;109329;-52
2024/01/20 04:39:05;;;;;;;1.80;0.80;;;;;;;22.06;30.90;95136.81;6166432;28;109233;-53
2024/01/20 04:42:10;;;;;;;1.87;0.80;;;;;;;21.85;31.35;95135.72;6147857;28;108921;-52
2024/01/20 04:45:14;;;;;;;1.40;0.90;;;;;;;21.89;30.69;95133.22;6155129;28;109091;-52
2024/01/20 04:48:19;;;;;;;1.07;0.67;;;;;;;22.06;30.84;95150.13;6156697;28;109177;-53
2024/01/20 04:51:23;;;;;;;1.80;0.90;;;;;;;22.08;30.95;95155.16;6143585;28;110293;-52
2024/01/20 04:54:27;;;;;;;4.07;0.70;;;;;;;22.07;30.97;95149.03;6155360;28;110074;-52
2024/01/20 04:57:31;;;;;;;3.73;0.70;;;;;;;22.07;30.61;95165.03;6156477;28;109023;-54
2024/01/20 05:00:35;;;;;;;3.40;1.20;;;;;;;22.07;30.78;95166.91;6156903;28;109029;-54
2024/01/20 05:03:39;;;;;;;1.60;0.70;;;;;;;22.09;31.06;95162.84;6140930;28;109411;-53
2024/01/20 05:06:45;;;;;;;1.20;0.80;;;;;;;22.08;30.47;95163.16;6158436;28;110149;-51
2024/01/20 05:09:48;;;;;;;1.20;0.80;;;;;;;22.04;30.50;95165.63;6156814;28;109125;-54
2024/01/20 05:12:52;;;;;;;1.00;0.60;;;;;;;22.07;30.47;95183.69;6156665;28;109569;-54
2024/01/20 05:15:56;;;;;;;2.47;1.00;;;;;;;22.08;30.49;95187.91;6146705;28;109153;-53
2024/01/20 05:18:59;;;;;;;1.20;0.70;;;;;;;22.09;30.97;95173.50;6154634;28;110452;-53
2024/01/20 05:22:02;;;;;;;1.20;0.80;;;;;;;22.08;31.00;95184.47;6156804;28;110478;-54
2024/01/20 05:25:06;;;;;;;1.40;0.80;;;;;;;22.10;30.98;95180.41;6151969;28;108897;-53
2024/01/20 05:28:10;;;;;;;1.20;0.87;;;;;;;22.09;30.73;95188.72;6151281;28;110431;-53
2024/01/20 05:31:13;;;;;;;1.67;0.80;;;;;;;21.97;30.51;95175.13;6151897;28;110095;-54
2024/01/20 05:34:16;;;;;;;1.53;0.80;;;;;;;22.08;30.32;95192.47;6157641;28;110096;-54
2024/01/20 05:37:19;;;;;;;1.23;0.70;;;;;;;22.06;30.91;95190.09;6143141;28;110108;-52
2024/01/20 05:40:22;;;;;;;1.10;0.60;;;;;;;22.05;30.71;95183.19;6154669;28;109177;-52
2024/01/20 05:43:27;;;;;;;2.60;0.93;;;;;;;22.06;30.90;95179.44;6155510;28;109147;-53
2024/01/20 05:46:30;;;;;;;1.20;0.60;;;;;;;22.04;30.80;95186.97;6157247;28;109241;-53
2024/01/20 05:49:33;;;;;;;1.13;0.73;;;;;;;22.02;30.90;95197.13;6149287;28;109786;-53
2024/01/20 05:52:36;;;;;;;1.33;0.60;;;;;;;22.01;30.51;95195.56;6155367;28;109353;-53
2024/01/20 05:55:39;;;;;;;1.10;0.60;;;;;;;22.02;30.34;95194.47;6157161;28;109146;-53
2024/01/20 05:58:44;;;;;;;1.30;0.70;;;;;;;22.01;30.76;95194.75;6153477;28;109298;-52
2024/01/20 06:01:50;;;;;;;1.20;0.70;;;;;;;21.89;30.81;95186.50;6147076;28;110089;-53
2024/01/20 06:04:53;;;;;;;1.20;0.60;;;;;;;21.97;30.43;95196.44;6157268;28;109338;-53
2024/01/20 06:07:56;;;;;;;1.17;0.77;;;;;;;21.97;30.49;95204.44;6155414;28;109287;-50
2024/01/20 06:10:59;;;;;;;1.10;0.70;;;;;;;21.98;30.59;95214.00;6146738;28;110278;-51
2024/01/20 06:14:04;;;;;;;2.00;0.70;;;;;;;22.00;30.83;95222.47;6156620;28;109345;-51
2024/01/20 06:17:07;;;;;;;1.30;0.80;;;;;;;22.00;30.29;95219.81;6156127;28;109138;-51
2024/01/20 06:20:10;;;;;;;1.37;0.70;;;;;;;21.97;30.69;95223.88;6149956;28;109310;-50
2024/01/20 06:23:14;;;;;;;1.10;0.70;;;;;;;21.98;30.80;95235.31;6146673;28;110158;-50
2024/01/20 06:26:17;;;;;;;1.53;0.67;;;;;;;21.97;30.78;95231.06;6160491;28;110121;-51
2024/01/20 06:29:21;;;;;;;1.30;0.70;;;;;;;21.96;30.45;95240.94;6160206;28;109250;-51
2024/01/20 06:32:24;;;;;;;1.23;0.70;;;;;;;21.94;30.40;95242.34;6160061;28;110234;-51
2024/01/20 06:35:27;;;;;;;1.30;0.70;;;;;;;21.95;30.80;95249.25;6149886;28;109332;-51
2024/01/20 06:38:31;;;;;;;1.10;0.70;;;;;;;21.93;30.57;95249.53;6157735;28;109359;-51
2024/01/20 06:41:34;;;;;;;1.10;0.60;;;;;;;21.93;30.92;95256.75;6160778;28;110360;-51
2024/01/20 06:44:38;;;;;;;1.40;0.80;;;;;;;21.93;30.31;95254.88;6155944;28;110169;-50
2024/01/20 06:47:41;;;;;;;1.10;0.60;;;;;;;21.92;30.96;95268.50;6153553;28;110289;-51
2024/01/20 06:50:44;;;;;;;1.17;0.70;;;;;;;21.91;30.31;95267.72;6160321;28;109071;-50
2024/01/20 06:53:49;;;;;;;1.07;0.53;;;;;;;21.90;30.45;95257.34;6161405;28;110121;-51
2024/01/20 06:56:52;;;;;;;1.10;0.60;;;;;;;21.88;30.45;95268.31;6146030;28;109111;-52
2024/01/20 06:59:57;;;;;;;1.20;0.60;;;;;;;21.88;30.83;95273.66;6166471;28;109174;-54
2024/01/20 07:03:00;;;;;;;4.63;1.43;;;;;;;21.32;30.53;95272.03;6159767;28;109083;-56
2024/01/20 07:06:04;;;;;;;1.87;1.20;;;;;;;21.18;31.02;95279.25;6158662;28;110094;-56
2024/01/20 07:09:07;;;;;;;2.63;1.07;;;;;;;21.12;30.79;95283.84;6145741;28;110160;-56
2024/01/20 07:12:10;;;;;;;1.70;1.60;;;;;;;21.12;31.41;95299.81;6160757;28;109283;-55
2024/01/20 07:15:15;;;;;;;5.87;5.33;;;;;;;21.14;31.40;95302.97;6163544;28;109114;-55
2024/01/20 07:18:18;;;;;;;7.87;7.27;;;;;;;21.18;31.06;95305.84;6154354;28;108981;-56
2024/01/20 07:21:21;;;;;;;8.37;7.77;;;;;;;21.19;31.26;95304.75;6153358;28;109330;-55
2024/01/20 07:24:24;;;;;;;9.37;8.67;;;;;;;21.17;31.48;95301.59;6154767;28;109045;-55
2024/01/20 07:27:27;;;;;;;8.30;7.50;;;;;;;21.17;31.44;95306.91;6152985;28;109137;-56
2024/01/20 07:30:32;;;;;;;8.60;8.00;;;;;;;21.13;31.75;95321.88;6150203;28;110136;-57
2024/01/20 07:33:35;;;;;;;7.73;7.03;;;;;;;21.09;31.33;95326.22;6161464;28;109066;-59
2024/01/20 07:36:38;;;;;;;7.70;6.93;;;;;;;21.08;31.68;95330.75;6184931;28;109264;-58
2024/01/20 07:39:41;;;;;;;7.03;6.43;;;;;;;21.07;31.82;95334.50;6171845;28;110373;-58
2024/01/20 07:42:45;;;;;;;6.27;5.77;;;;;;;21.04;31.61;95329.72;6150298;28;108944;-58
2024/01/20 07:45:53;;;;;;;5.73;5.23;;;;;;;21.06;31.87;95334.78;6161753;28;109079;-59
2024/01/20 07:48:56;;;;;;;4.80;4.40;;;;;;;21.06;32.01;95340.09;6177965;28;109359;-58
2024/01/20 07:52:00;;;;;;;4.00;3.70;;;;;;;21.02;31.52;95334.56;6159770;28;108879;-57
2024/01/20 07:55:03;;;;;;;4.80;4.17;;;;;;;21.01;31.47;95337.50;6145564;28;110137;-57
2024/01/20 07:58:06;;;;;;;5.93;3.60;;;;;;;21.01;31.51;95350.81;6175291;28;110474;-58
2024/01/20 08:01:10;;;;;;;3.80;3.37;;;;;;;21.04;31.56;95364.31;6160351;28;110100;-57
2024/01/20 08:04:13;;;;;;;3.23;2.93;;;;;;;21.04;31.43;95359.00;6138457;28;109219;-58
2024/01/20 08:07:16;;;;;;;2.77;2.33;;;;;;;21.08;31.42;95362.69;6154510;28;111138;-58
2024/01/20 08:10:20;;;;;;;3.40;3.10;;;;;;;21.07;31.61;95378.94;6158689;28;110234;-58
2024/01/20 08:13:23;;;;;;;3.97;2.90;;;;;;;20.97;31.75;95368.41;6158231;28;108904;-57
2024/01/20 08:16:28;;;;;;;2.73;1.80;;;;;;;21.23;32.03;95384.81;6143757;28;110499;-58
2024/01/20 08:19:31;;;;;;;7.13;2.03;;;;;;;21.24;31.56;95392.50;6154142;28;110394;-54
2024/01/20 08:22:35;;;;;;;4.40;1.90;;;;;;;21.18;31.46;95383.81;6157880;28;109061;-58
2024/01/20 08:25:38;;;;;;;4.20;2.20;;;;;;;21.07;31.72;95377.06;6163438;28;110315;-58
2024/01/20 08:28:41;;;;;;;3.50;2.17;;;;;;;21.06;31.98;95388.00;6157228;28;109690;-63
2024/01/20 08:31:45;;;;;;;3.70;1.90;;;;;;;21.26;32.59;95410.84;6155649;28;110457;-58
2024/01/20 08:34:49;;;;;;;3.57;2.17;;;;;;;21.04;32.09;95406.88;6153444;28;110209;-58
2024/01/20 08:37:52;;;;;;;3.23;2.10;;;;;;;20.96;31.17;95406.75;6151405;28;109799;-57
2024/01/20 08:40:55;;;;;;;5.40;1.93;;;;;;;20.87;31.04;95407.41;6160113;28;110153;-58
2024/01/20 08:43:58;;;;;;;4.80;2.20;;;;;;;20.87;31.03;95401.28;6155670;28;110499;-57
2024/01/20 08:47:03;;;;;;;5.20;1.97;;;;;;;20.87;31.34;95404.75;6149524;28;109307;-57
2024/01/20 08:50:06;;;;;;;7.40;2.47;;;;;;;20.90;31.16;95403.38;6146887;28;110045;-58
2024/01/20 08:53:09;;;;;;;5.10;2.10;;;;;;;20.90;31.55;95409.47;6161918;28;109270;-57
2024/01/20 08:56:12;;;;;;;2.53;1.73;;;;;;;20.92;31.23;95422.50;6162188;28;109469;-57
2024/01/20 08:59:16;;;;;;;3.20;1.87;;;;;;;21.00;31.24;95421.03;6157267;28;109462;-56
2024/01/20 09:02:21;;;;;;;4.53;1.80;;;;;;;21.04;31.43;95427.38;6146736;28;109403;-57
2024/01/20 09:05:24;;;;;;;4.70;1.70;;;;;;;21.01;31.45;95422.66;6158438;28;110180;-56
2024/01/20 09:08:27;;;;;;;3.57;1.63;;;;;;;20.98;31.39;95429.31;6165382;28;110090;-56
2024/01/20 09:11:30;;;;;;;7.80;2.00;;;;;;;20.96;31.45;95430.69;6159782;28;109178;-56
2024/01/20 09:14:33;;;;;;;6.10;1.93;;;;;;;20.98;31.28;95431.97;6148656;28;110211;-56
2024/01/20 09:17:37;;;;;;;3.30;1.83;;;;;;;20.98;31.52;95447.94;6158400;28;109781;-56
2024/01/20 09:20:40;;;;;;;2.10;1.63;;;;;;;20.99;31.30;95436.22;6158047;28;110828;-55
2024/01/20 09:23:43;;;;;;;2.37;1.73;;;;;;;20.60;31.73;95383.31;6152476;28;109238;-56
2024/01/20 09:26:47;;;;;;;2.60;1.93;;;;;;;21.02;31.85;95442.84;6129991;28;108684;-56
2024/01/20 09:29:50;;;;;;;4.83;2.20;;;;;;;21.10;31.73;95442.22;6142610;28;109144;-56
2024/01/20 09:32:54;;;;;;;2.27;1.73;;;;;;;21.07;31.94;95437.47;6158485;28;109155;-56
2024/01/20 09:35:57;;;;;;;9.20;4.30;;;;;;;20.40;29.27;95445.53;6147625;28;110319;-55
2024/01/20 09:39:00;;;;;;;8.43;4.07;;;;;;;20.32;30.38;95440.81;6158662;28;110691;-56
2024/01/20 09:42:04;;;;;;;27.27;11.00;;;;;;;20.58;29.73;95441.31;6158518;28;108999;-56
2024/01/20 09:45:08;;;;;;;24.10;12.10;;;;;;;20.84;29.28;95447.88;6157047;28;109265;-62
2024/01/20 09:48:12;;;;;;;10.80;8.17;;;;;;;20.15;27.47;95438.59;6146513;28;109085;-62
2024/01/20 09:51:16;;;;;;;24.73;8.30;;;;;;;20.13;28.65;95451.38;6157741;28;110552;-62
2024/01/20 09:54:21;;;;;;;16.20;8.87;;;;;;;20.55;27.93;95450.66;6157917;28;108921;-61
2024/01/20 09:57:25;;;;;;;21.07;11.27;;;;;;;20.92;28.13;95449.09;6160965;28;109080;-61
2024/01/20 10:00:28;;;;;;;50.53;18.10;;;;;;;21.08;29.01;95453.16;6168968;28;110352;-65
2024/01/20 10:03:35;;;;;;;51.67;19.13;;;;;;;21.23;29.02;95449.47;6141637;28;108856;-65
2024/01/20 10:06:39;;;;;;;38.40;15.53;;;;;;;21.32;29.11;95452.25;6161532;28;109461;-65
2024/01/20 10:09:42;;;;;;;43.17;15.83;;;;;;;21.24;30.24;95451.06;6152418;28;109062;-62
2024/01/20 10:12:48;;;;;;;30.43;13.80;;;;;;;21.30;30.21;95444.56;6153977;28;109292;-65
2024/01/20 10:15:54;;;;;;;33.20;13.97;;;;;;;21.30;30.30;95435.78;6161441;28;110235;-65
2024/01/20 10:18:59;;;;;;;29.37;13.33;;;;;;;21.34;30.60;95436.78;6157478;28;109337;-65
2024/01/20 10:22:08;;;;;;;21.70;12.40;;;;;;;21.34;30.82;95429.59;6139761;28;111672;-66
2024/01/20 10:25:17;;;;;;;21.03;11.23;;;;;;;21.36;31.04;95437.31;6146394;28;110575;-65
2024/01/20 10:28:23;;;;;;;24.53;10.10;;;;;;;21.42;31.29;95438.78;6161842;28;109238;-66
2024/01/20 10:31:26;;;;;;;18.97;9.67;;;;;;;21.43;31.65;95437.69;6156690;28;109245;-64
2024/01/20 10:34:31;;;;;;;20.00;9.87;;;;;;;21.54;32.01;95433.81;6157705;28;110380;-63
2024/01/20 10:37:37;;;;;;;16.30;8.60;;;;;;;21.64;31.89;95433.59;6167177;28;109093;-68
2024/01/20 10:40:42;;;;;;;12.70;8.30;;;;;;;21.56;32.28;95436.97;6157855;28;109678;-66
2024/01/20 10:43:53;;;;;;;19.53;8.70;;;;;;;21.55;32.50;95440.72;6148554;28;110426;-66
2024/01/20 10:47:03;;;;;;;11.53;7.83;;;;;;;21.56;32.66;95452.16;6161162;28;109127;-66
2024/01/20 10:50:09;;;;;;;12.73;7.67;;;;;;;21.58;32.94;95448.09;6166933;28;109125;-65
2024/01/20 10:53:12;;;;;;;12.40;7.87;;;;;;;21.62;33.25;95445.63;6160835;28;109151;-66
2024/01/20 10:56:17;;;;;;;9.53;7.10;;;;;;;21.62;33.49;95446.44;6150160;28;109330;-66
2024/01/20 10:59:25;;;;;;;10.03;7.17;;;;;;;21.61;33.24;95444.06;6160815;28;109086;-66
2024/01/20 11:02:29;;;;;;;10.77;6.90;;;;;;;21.58;33.90;95444.66;6150275;28;109562;-66
2024/01/20 11:05:34;;;;;;;8.70;6.87;;;;;;;21.59;33.58;95443.56;6155277;28;110458;-66
2024/01/20 11:08:37;;;;;;;11.77;7.10;;;;;;;21.52;34.31;95422.66;6142791;28;109202;-67
2024/01/20 11:11:41;;;;;;;12.67;7.40;;;;;;;21.34;33.57;95432.28;6158968;28;109778;-66
2024/01/20 11:14:51;;;;;;;8.00;5.90;;;;;;;21.18;33.20;95425.59;6158676;28;109293;-67
2024/01/20 11:17:54;;;;;;;10.23;6.57;;;;;;;21.13;32.85;95430.97;6147379;28;109888;-66
2024/01/20 11:21:01;;;;;;;7.90;6.17;;;;;;;21.27;32.67;95434.50;6162709;28;109593;-66
2024/01/20 11:24:05;;;;;;;7.30;5.77;;;;;;;21.34;32.58;95442.09;6159069;28;109872;-66
2024/01/20 11:27:10;;;;;;;8.43;5.20;;;;;;;21.35;32.81;95447.16;6155773;28;108738;-66
2024/01/20 11:30:14;;;;;;;10.90;6.00;;;;;;;21.35;33.06;95441.84;6148330;28;110696;-66
2024/01/20 11:33:19;;;;;;;6.93;5.17;;;;;;;21.35;33.22;95447.16;6158332;28;109235;-67
2024/01/20 11:36:27;;;;;;;7.07;5.60;;;;;;;21.35;33.57;95441.03;6156140;28;111416;-65
2024/01/20 11:39:31;;;;;;;8.20;6.27;;;;;;;21.36;33.25;95448.75;6153132;28;109101;-58
2024/01/20 11:42:34;;;;;;;9.80;5.43;;;;;;;21.30;33.52;95449.09;6151396;28;110045;-67
2024/01/20 11:45:37;;;;;;;8.90;5.97;;;;;;;21.35;33.73;95452.47;6172738;28;109404;-66
2024/01/20 11:48:42;;;;;;;10.10;5.70;;;;;;;21.21;33.60;95456.97;6166127;28;109174;-66
2024/01/20 11:51:46;;;;;;;7.67;5.33;;;;;;;21.13;32.74;95452.28;6150169;28;109110;-63
2024/01/20 11:54:50;;;;;;;11.23;6.30;;;;;;;21.06;33.32;95451.84;6157973;28;109082;-66
2024/01/20 11:57:55;;;;;;;7.87;5.70;;;;;;;21.04;31.78;95454.00;6159979;28;109028;-66
2024/01/20 12:00:59;;;;;;;11.07;6.80;;;;;;;20.99;32.18;95462.03;6159770;28;109141;-67
2024/01/20 12:04:03;;;;;;;7.27;5.27;;;;;;;21.35;31.99;95465.00;6146832;28;109380;-67
2024/01/20 12:07:08;;;;;;;7.63;5.77;;;;;;;21.57;31.68;95465.16;6154558;28;109291;-65
2024/01/20 12:10:12;;;;;;;6.70;4.80;;;;;;;21.70;31.91;95463.63;6155658;28;109011;-65
2024/01/20 12:13:16;;;;;;;6.83;4.90;;;;;;;21.76;31.78;95457.13;6158795;28;109740;-65
2024/01/20 12:16:20;;;;;;;6.83;4.90;;;;;;;21.82;32.02;95461.28;6147411;28;109123;-66
2024/01/20 12:19:23;;;;;;;7.17;4.33;;;;;;;21.87;31.58;95461.22;6156376;28;109145;-66
2024/01/20 12:22:28;;;;;;;7.23;5.03;;;;;;;21.90;31.75;95462.50;6157701;28;109247;-66
2024/01/20 12:25:31;;;;;;;6.50;5.10;;;;;;;21.91;32.01;95470.22;6149388;28;109210;-60
2024/01/20 12:28:35;;;;;;;5.43;4.77;;;;;;;21.94;32.27;95466.94;6155097;28;109311;-66
2024/01/20 12:31:38;;;;;;;4.90;4.50;;;;;;;21.94;31.76;95472.28;6156148;28;109386;-66
2024/01/20 12:34:41;;;;;;;6.33;4.20;;;;;;;21.97;32.02;95476.22;6156967;28;109343;-67
2024/01/20 12:37:48;;;;;;;4.97;4.43;;;;;;;22.00;32.27;95478.28;6149031;28;109631;-67
2024/01/20 12:40:51;;;;;;;5.70;4.37;;;;;;;22.00;32.29;95479.09;6155478;28;109413;-65
2024/01/20 12:43:54;;;;;;;4.50;3.87;;;;;;;22.02;32.12;95486.81;6158285;28;111244;-64
2024/01/20 12:46:57;;;;;;;4.97;4.40;;;;;;;22.02;32.20;95484.16;6158206;28;110304;-64
2024/01/20 12:50:01;;;;;;;9.80;4.27;;;;;;;22.04;32.47;95492.63;6146701;28;110496;-65
2024/01/20 12:53:06;;;;;;;6.00;3.93;;;;;;;22.05;32.07;95499.56;6158803;28;109652;-66
2024/01/20 12:56:09;;;;;;;4.47;4.00;;;;;;;22.04;32.51;95508.63;6157493;28;110777;-65
2024/01/20 12:59:12;;;;;;;4.40;3.47;;;;;;;22.04;32.51;95517.41;6153970;28;110581;-66
2024/01/20 13:02:15;;;;;;;5.23;4.10;;;;;;;22.01;32.49;95517.19;6156419;28;109267;-63
2024/01/20 13:05:18;;;;;;;4.40;3.93;;;;;;;21.96;32.38;95519.94;6158036;28;109161;-63
2024/01/20 13:08:23;;;;;;;4.20;3.80;;;;;;;21.91;32.08;95525.38;6157740;28;110167;-63
2024/01/20 13:11:28;;;;;;;5.07;4.10;;;;;;;21.96;31.94;95528.72;6142761;28;109581;-66
2024/01/20 13:14:31;;;;;;;4.10;3.80;;;;;;;22.04;32.40;95527.28;6157393;28;109140;-66
2024/01/20 13:17:35;;;;;;;5.10;3.70;;;;;;;22.05;32.35;95534.97;6157149;28;110128;-66
2024/01/20 13:20:38;;;;;;;5.00;3.93;;;;;;;22.07;32.02;95532.03;6156655;28;109440;-67
2024/01/20 13:23:46;;;;;;;3.80;3.50;;;;;;;22.10;32.64;95536.75;6143676;28;109702;-67
2024/01/20 13:26:49;;;;;;;4.10;3.70;;;;;;;22.11;32.54;95536.47;6155958;28;109195;-67
2024/01/20 13:29:52;;;;;;;3.43;3.13;;;;;;;22.11;32.10;95552.47;6156525;28;109111;-66
2024/01/20 13:32:55;;;;;;;4.90;4.13;;;;;;;22.10;32.40;95555.41;6157737;28;109199;-66
2024/01/20 13:35:58;;;;;;;4.27;3.87;;;;;;;22.13;32.15;95552.16;6145293;28;109367;-60
2024/01/20 13:39:04;;;;;;;4.60;3.40;;;;;;;22.11;32.54;95559.66;6159516;28;109143;-60
2024/01/20 13:42:09;;;;;;;4.60;3.40;;;;;;;22.11;32.39;95563.13;6156267;28;109337;-60
2024/01/20 13:45:12;;;;;;;4.20;3.80;;;;;;;22.12;31.92;95561.25;6145610;28;109003;-61
2024/01/20 13:48:15;;;;;;;4.20;3.80;;;;;;;22.15;32.46;95559.88;6156658;28;109192;-60
2024/01/20 13:51:21;;;;;;;4.23;3.73;;;;;;;22.18;32.45;95568.09;6156511;28;109791;-60
2024/01/20 13:54:26;;;;;;;5.20;3.70;;;;;;;22.22;32.59;95570.94;6154816;28;109507;-61
2024/01/20 13:57:29;;;;;;;4.03;3.63;;;;;;;22.23;32.23;95578.66;6143731;28;109231;-61
2024/01/20 14:00:33;;;;;;;3.70;3.27;;;;;;;22.21;32.79;95580.03;6153821;28;109091;-61
2024/01/20 14:03:37;;;;;;;4.50;3.53;;;;;;;22.21;32.34;95590.69;6158177;28;108981;-60
2024/01/20 14:06:40;;;;;;;3.67;3.23;;;;;;;22.25;32.83;95591.69;6155866;28;109027;-61
2024/01/20 14:09:45;;;;;;;5.17;3.60;;;;;;;22.26;32.75;95598.59;6139008;28;111967;-62
2024/01/20 14:12:48;;;;;;;3.67;3.37;;;;;;;22.27;32.34;95594.84;6155692;28;109429;-60